createdAt,value
2022-12-01T00:02:36.011Z,15.40
2022-12-01T00:06:38.031Z,15.93
2022-12-01T00:10:39.731Z,18.17
2022-12-01T00:14:41.383Z,16.80
2022-12-01T00:18:44.037Z,17.00
2022-12-01T00:22:47.257Z,16.13
2022-12-01T00:26:49.575Z,15.30
2022-12-01T00:30:51.308Z,17.37
2022-12-01T00:34:52.955Z,18.00
2022-12-01T00:38:56.252Z,17.47
2022-12-01T00:42:57.937Z,17.67
2022-12-01T00:46:59.727Z,17.23
2022-12-01T00:51:02.624Z,16.50
2022-12-01T00:55:04.758Z,17.73
2022-12-01T00:59:06.628Z,17.97
2022-12-01T01:03:09.164Z,18.53
2022-12-01T01:07:10.855Z,17.87
2022-12-01T01:11:12.564Z,16.73
2022-12-01T01:15:14.295Z,18.23
2022-12-01T01:19:17.495Z,17.83
2022-12-01T01:23:19.453Z,18.20
2022-12-01T01:27:21.112Z,18.40
2022-12-01T01:31:25.299Z,18.47
2022-12-01T01:35:27.055Z,18.63
2022-12-01T01:39:28.828Z,18.50
2022-12-01T01:43:42.645Z,17.93
2022-12-01T01:47:44.636Z,17.50
2022-12-01T01:51:52.444Z,18.93
2022-12-01T01:55:55.296Z,19.10
2022-12-01T02:00:07.870Z,18.77
2022-12-01T02:04:09.600Z,18.20
2022-12-01T02:08:14.664Z,18.17
2022-12-01T02:12:43.727Z,18.43
2022-12-01T02:17:09.087Z,18.27
2022-12-01T02:21:19.940Z,18.60
2022-12-01T02:25:33.891Z,16.23
2022-12-01T02:29:59.284Z,19.07
2022-12-01T02:34:13.404Z,17.47
2022-12-01T02:38:27.111Z,17.00
2022-12-01T02:42:51.806Z,17.23
2022-12-01T02:46:56.594Z,16.43
2022-12-01T02:51:04.385Z,17.57
2022-12-01T02:55:06.536Z,17.83
2022-12-01T02:59:13.815Z,18.60
2022-12-01T03:03:34.895Z,17.50
2022-12-01T03:07:48.618Z,17.80
2022-12-01T03:12:01.862Z,18.27
2022-12-01T03:16:16.478Z,18.97
2022-12-01T03:20:32.698Z,18.87
2022-12-01T03:24:36.431Z,20.43
2022-12-01T03:28:46.414Z,20.80
2022-12-01T03:32:51.267Z,21.43
2022-12-01T03:37:01.511Z,19.03
2022-12-01T03:41:15.382Z,21.50
2022-12-01T03:45:22.178Z,20.03
2022-12-01T03:49:25.779Z,21.03
2022-12-01T03:53:40.139Z,20.10
2022-12-01T03:57:55.778Z,21.00
2022-12-01T04:01:58.135Z,20.23
2022-12-01T04:06:00.754Z,19.40
2022-12-01T04:10:02.599Z,19.93
2022-12-01T04:14:04.289Z,20.77
2022-12-01T04:18:05.993Z,19.33
2022-12-01T04:22:07.755Z,19.57
2022-12-01T04:26:15.445Z,20.20
2022-12-01T04:30:18.740Z,20.63
2022-12-01T04:34:20.562Z,20.37
2022-12-01T04:38:26.122Z,20.27
2022-12-01T04:42:30.537Z,19.83
2022-12-01T04:46:33.431Z,20.80
2022-12-01T04:50:35.160Z,21.57
2022-12-01T04:54:36.870Z,20.67
2022-12-01T04:58:38.962Z,19.67
2022-12-01T05:02:43.464Z,22.57
2022-12-01T05:06:45.172Z,19.50
2022-12-01T05:10:46.896Z,19.87
2022-12-01T05:14:48.527Z,21.40
2022-12-01T05:19:12.988Z,21.20
2022-12-01T05:23:16.926Z,20.43
2022-12-01T05:27:18.968Z,19.30
2022-12-01T05:31:20.681Z,20.33
2022-12-01T05:35:22.645Z,21.53
2022-12-01T05:39:24.525Z,20.03
2022-12-01T05:43:29.411Z,21.17
2022-12-01T05:47:31.409Z,19.93
2022-12-01T05:51:34.848Z,19.73
2022-12-01T05:55:36.569Z,20.83
2022-12-01T05:59:38.224Z,20.60
2022-12-01T06:03:40.168Z,21.97
2022-12-01T06:07:42.477Z,20.40
2022-12-01T06:11:47.233Z,20.83
2022-12-01T06:16:03.929Z,21.30
2022-12-01T06:20:06.864Z,20.97
2022-12-01T06:24:09.858Z,21.00
2022-12-01T06:28:11.522Z,20.07
2022-12-01T06:32:13.229Z,20.30
2022-12-01T06:36:14.902Z,19.80
2022-12-01T06:40:16.947Z,21.60
2022-12-01T06:44:18.771Z,21.33
2022-12-01T06:48:20.439Z,20.77
2022-12-01T06:52:22.235Z,20.17
2022-12-01T06:56:24.003Z,19.40
2022-12-01T07:00:28.273Z,20.60
2022-12-01T07:04:31.001Z,20.17
2022-12-01T07:08:33.340Z,19.60
2022-12-01T07:12:35.315Z,20.03
2022-12-01T07:16:37.341Z,18.57
2022-12-01T07:20:39.182Z,20.13
2022-12-01T07:24:40.826Z,19.93
2022-12-01T07:28:42.876Z,20.43
2022-12-01T07:32:44.532Z,19.63
2022-12-01T07:36:46.245Z,19.87
2022-12-01T07:40:48.126Z,19.90
2022-12-01T07:44:50.626Z,21.93
2022-12-01T07:48:56.504Z,20.27
2022-12-01T07:52:58.217Z,21.60
2022-12-01T07:57:00.036Z,21.40
2022-12-01T08:01:09.946Z,19.97
2022-12-01T08:05:11.796Z,21.03
2022-12-01T08:09:14.403Z,20.50
2022-12-01T08:13:17.576Z,20.73
2022-12-01T08:17:21.563Z,20.70
2022-12-01T08:21:24.382Z,20.90
2022-12-01T08:25:26.155Z,22.13
2022-12-01T08:29:27.958Z,20.67
2022-12-01T08:33:29.692Z,22.23
2022-12-01T08:37:31.445Z,21.07
2022-12-01T08:41:33.225Z,20.83
2022-12-01T08:45:35.037Z,21.23
2022-12-01T08:49:37.189Z,22.00
2022-12-01T08:53:45.674Z,21.00
2022-12-01T08:57:47.720Z,22.40
2022-12-01T09:01:57.326Z,21.80
2022-12-01T09:06:08.036Z,21.83
2022-12-01T09:10:10.099Z,23.27
2022-12-01T09:14:13.317Z,21.20
2022-12-01T09:18:15.014Z,19.63
2022-12-01T09:22:17.592Z,21.03
2022-12-01T09:26:20.216Z,19.53
2022-12-01T09:30:21.936Z,20.27
2022-12-01T09:34:24.428Z,20.83
2022-12-01T09:38:28.171Z,20.60
2022-12-01T09:42:35.231Z,20.90
2022-12-01T09:46:41.988Z,19.23
2022-12-01T09:50:43.814Z,21.53
2022-12-01T09:54:49.094Z,20.73
2022-12-01T09:58:55.523Z,19.90
2022-12-01T10:03:12.427Z,20.67
2022-12-01T10:07:19.460Z,20.43
2022-12-01T10:11:34.714Z,20.80
2022-12-01T10:15:54.623Z,21.23
2022-12-01T10:20:21.825Z,19.53
2022-12-01T10:24:52.233Z,20.77
2022-12-01T10:29:13.408Z,19.80
2022-12-01T10:33:28.395Z,20.43
2022-12-01T10:37:30.849Z,19.13
2022-12-01T10:41:36.618Z,21.03
2022-12-01T10:45:42.865Z,19.97
2022-12-01T10:49:44.731Z,18.30
2022-12-01T10:53:46.464Z,21.27
2022-12-01T10:57:49.585Z,19.53
2022-12-01T11:01:52.714Z,17.97
2022-12-01T11:05:58.688Z,19.10
2022-12-01T11:10:04.350Z,21.47
2022-12-01T11:14:18.662Z,20.13
2022-12-01T11:18:24.548Z,19.57
2022-12-01T11:22:33.709Z,19.73
2022-12-01T11:26:35.441Z,18.17
2022-12-01T11:30:37.156Z,19.43
2022-12-01T11:34:39.320Z,18.37
2022-12-01T11:38:41.244Z,19.33
2022-12-01T11:42:54.456Z,18.70
2022-12-01T11:47:21.475Z,19.67
2022-12-01T11:51:18.290Z,18.20
2022-12-01T11:55:21.726Z,18.47
2022-12-01T11:59:26.667Z,17.93
2022-12-01T12:03:46.399Z,18.30
2022-12-01T12:08:09.803Z,18.27
2022-12-01T12:12:44.177Z,16.70
2022-12-01T12:16:51.884Z,17.73
2022-12-01T12:21:30.736Z,17.37
2022-12-01T12:25:48.495Z,18.87
2022-12-01T12:30:06.289Z,19.30
2022-12-01T12:34:35.773Z,19.40
2022-12-01T12:38:52.738Z,19.87
2022-12-01T12:43:06.521Z,19.47
2022-12-01T12:47:18.768Z,19.77
2022-12-01T12:51:28.671Z,19.30
2022-12-01T12:55:40.106Z,21.50
2022-12-01T13:00:01.012Z,19.67
2022-12-01T13:04:05.656Z,17.80
2022-12-01T13:08:13.773Z,17.37
2022-12-01T13:12:28.934Z,20.00
2022-12-01T13:16:44.214Z,21.00
2022-12-01T13:20:47.033Z,17.47
2022-12-01T13:24:48.937Z,17.37
2022-12-01T13:28:53.750Z,17.63
2022-12-01T13:33:03.407Z,17.83
2022-12-01T13:37:05.650Z,16.43
2022-12-01T13:41:13.520Z,16.20
2022-12-01T13:45:19.679Z,19.03
2022-12-01T13:49:43.910Z,17.37
2022-12-01T13:54:16.797Z,17.30
2022-12-01T13:58:25.182Z,16.57
2022-12-01T14:02:29.542Z,17.53
2022-12-01T14:06:31.353Z,16.37
2022-12-01T14:10:33.759Z,16.10
2022-12-01T14:14:39.872Z,15.07
2022-12-01T14:18:57.337Z,15.17
2022-12-01T14:23:13.202Z,15.87
2022-12-01T14:27:14.960Z,16.00
2022-12-01T14:31:16.726Z,16.57
2022-12-01T14:35:18.693Z,17.77
2022-12-01T14:39:21.073Z,16.67
2022-12-01T14:43:45.206Z,15.63
2022-12-01T14:47:52.650Z,16.50
2022-12-01T14:51:59.695Z,17.27
2022-12-01T14:56:16.361Z,17.07
2022-12-01T15:00:22.355Z,16.43
2022-12-01T15:04:24.498Z,15.10
2022-12-01T15:08:53.705Z,16.17
2022-12-01T15:12:52.609Z,17.20
2022-12-01T15:16:54.470Z,18.33
2022-12-01T15:21:01.123Z,16.77
2022-12-01T15:25:16.066Z,21.33
2022-12-01T15:29:31.570Z,16.57
2022-12-01T15:33:37.406Z,19.73
2022-12-01T15:37:44.508Z,18.73
2022-12-01T15:41:53.863Z,17.47
2022-12-01T15:45:55.841Z,17.57
2022-12-01T15:49:57.663Z,16.43
2022-12-01T15:54:01.126Z,17.57
2022-12-01T15:58:07.841Z,17.60
2022-12-01T16:02:27.928Z,18.47
2022-12-01T16:06:36.843Z,19.53
2022-12-01T16:10:39.032Z,18.57
2022-12-01T16:15:03.065Z,21.03
2022-12-01T16:19:07.799Z,26.50
2022-12-01T16:23:26.263Z,23.93
2022-12-01T16:27:29.995Z,27.47
2022-12-01T16:31:32.394Z,23.07
2022-12-01T16:35:34.811Z,22.47
2022-12-01T16:39:36.601Z,21.13
2022-12-01T16:43:38.335Z,20.93
2022-12-01T16:47:40.673Z,21.10
2022-12-01T16:51:55.286Z,20.77
2022-12-01T16:56:00.388Z,22.47
2022-12-01T17:00:02.323Z,29.57
2022-12-01T17:04:07.602Z,24.97
2022-12-01T17:08:09.756Z,22.33
2022-12-01T17:12:11.437Z,21.93
2022-12-01T17:16:18.145Z,23.17
2022-12-01T17:20:20.571Z,23.03
2022-12-01T17:24:22.557Z,31.20
2022-12-01T17:28:24.271Z,25.73
2022-12-01T17:32:27.065Z,28.30
2022-12-01T17:36:28.779Z,28.33
2022-12-01T17:40:30.795Z,23.90
2022-12-01T17:44:32.575Z,20.73
2022-12-01T17:48:43.039Z,22.03
2022-12-01T17:52:45.019Z,21.67
2022-12-01T17:56:46.909Z,20.40
2022-12-01T18:00:51.145Z,21.63
2022-12-01T18:04:53.250Z,21.93
2022-12-01T18:08:57.511Z,20.57
2022-12-01T18:12:59.319Z,21.23
2022-12-01T18:17:01.099Z,22.33
2022-12-01T18:21:09.120Z,21.80
2022-12-01T18:25:11.559Z,20.70
2022-12-01T18:29:19.063Z,20.20
2022-12-01T18:33:21.068Z,19.73
2022-12-01T18:37:24.414Z,20.37
2022-12-01T18:41:27.336Z,20.07
2022-12-01T18:45:29.044Z,22.67
2022-12-01T18:49:30.895Z,24.83
2022-12-01T18:53:32.873Z,21.97
2022-12-01T18:57:34.869Z,20.80
2022-12-01T19:01:40.207Z,21.03
2022-12-01T19:05:42.267Z,21.03
2022-12-01T19:09:43.974Z,20.90
2022-12-01T19:13:48.013Z,22.93
2022-12-01T19:17:49.716Z,22.33
2022-12-01T19:21:51.600Z,24.50
2022-12-01T19:25:53.391Z,19.70
2022-12-01T19:29:55.098Z,18.40
2022-12-01T19:33:57.053Z,17.77
2022-12-01T19:37:58.739Z,17.70
2022-12-01T19:42:00.463Z,26.73
2022-12-01T19:46:11.176Z,18.43
2022-12-01T19:50:13.361Z,18.70
2022-12-01T19:54:19.608Z,20.63
2022-12-01T19:58:21.447Z,20.97
2022-12-01T20:02:28.908Z,21.10
2022-12-01T20:06:32.622Z,17.67
2022-12-01T20:10:34.313Z,15.70
2022-12-01T20:14:36.019Z,15.17
2022-12-01T20:18:38.454Z,15.87
2022-12-01T20:22:40.243Z,16.37
2022-12-01T20:26:48.472Z,16.37
2022-12-01T20:30:50.176Z,16.37
2022-12-01T20:34:52.148Z,15.53
2022-12-01T20:38:54.581Z,17.63
2022-12-01T20:42:56.277Z,18.33
2022-12-01T20:46:58.120Z,18.03
2022-12-01T20:51:01.659Z,16.83
2022-12-01T20:55:03.569Z,16.70
2022-12-01T20:59:05.543Z,18.23
2022-12-01T21:03:07.289Z,18.23
2022-12-01T21:07:09.199Z,18.27
2022-12-01T21:11:19.182Z,18.30
2022-12-01T21:15:30.313Z,21.57
2022-12-01T21:19:47.391Z,28.63
2022-12-01T21:24:12.660Z,17.63
2022-12-01T21:28:25.347Z,16.93
2022-12-01T21:32:33.320Z,18.37
2022-12-01T21:36:35.088Z,18.30
2022-12-01T21:40:36.903Z,19.83
2022-12-01T21:44:39.364Z,20.97
2022-12-01T21:48:41.758Z,20.00
2022-12-01T21:52:45.944Z,20.67
2022-12-01T21:56:49.377Z,19.10
2022-12-01T22:00:52.955Z,18.43
2022-12-01T22:04:55.023Z,19.47
2022-12-01T22:09:00.899Z,20.20
2022-12-01T22:13:10.790Z,21.23
2022-12-01T22:17:22.005Z,22.33
2022-12-01T22:21:23.687Z,21.60
2022-12-01T22:25:27.223Z,21.93
2022-12-01T22:29:37.998Z,21.83
2022-12-01T22:33:39.701Z,21.27
2022-12-01T22:37:46.014Z,21.83
2022-12-01T22:42:00.644Z,22.27
2022-12-01T22:46:10.395Z,22.53
2022-12-01T22:50:27.100Z,22.57
2022-12-01T22:54:30.228Z,22.07
2022-12-01T22:58:41.183Z,21.03
2022-12-01T23:02:44.572Z,21.93
2022-12-01T23:07:15.677Z,21.93
2022-12-01T23:11:17.548Z,21.80
2022-12-01T23:15:38.955Z,22.50
2022-12-01T23:19:42.846Z,23.83
2022-12-01T23:23:44.558Z,22.20
2022-12-01T23:27:49.615Z,22.57
2022-12-01T23:31:51.858Z,20.50
2022-12-01T23:35:55.403Z,22.23
2022-12-01T23:39:57.217Z,22.07
2022-12-01T23:44:03.927Z,21.87
2022-12-01T23:48:11.658Z,22.73
2022-12-01T23:52:18.572Z,22.30
2022-12-01T23:56:23.157Z,23.37
